Time;durP1;ratioP1;P1;durP2;ratioP2;P2;SDS_P1;SDS_P2;PMS_P1;PMS_P2;Temp;Humidity;BMP_temperature;BMP_pressure;BME280_temperature;BME280_humidity;BME280_pressure;Samples;Min_cycle;Max_cycle;Signal;HPM_P1;HPM_P2
2021/07/25 00:01:13;;;;;;;10.70;5.00;;;20.20;77.30;;;;;;5078003;28;20381;-61
2021/07/25 00:03:39;;;;;;;9.23;5.00;;;20.20;77.50;;;;;;5077198;28;20382;-62
2021/07/25 00:06:05;;;;;;;9.77;5.07;;;20.10;77.80;;;;;;5074146;28;20370;-61
2021/07/25 00:08:31;;;;;;;9.77;5.18;;;20.10;77.90;;;;;;5073938;28;20385;-61
2021/07/25 00:10:58;;;;;;;7.60;5.13;;;20.10;78.30;;;;;;5074421;28;20393;-62
2021/07/25 00:13:24;;;;;;;8.93;5.00;;;20.10;78.60;;;;;;5074548;28;20386;-62
2021/07/25 00:15:50;;;;;;;8.60;5.20;;;20.00;78.80;;;;;;5074937;28;20715;-62
2021/07/25 00:18:16;;;;;;;8.85;4.85;;;20.00;79.10;;;;;;5075294;28;20394;-62
2021/07/25 00:20:42;;;;;;;8.75;5.03;;;20.00;79.30;;;;;;5074482;28;20839;-61
2021/07/25 00:23:16;;;;;;;11.50;5.15;;;20.00;79.80;;;;;;5074227;28;20383;-60
2021/07/25 00:25:43;;;;;;;8.53;5.27;;;20.00;80.10;;;;;;5074776;28;20819;-60
2021/07/25 00:28:14;;;;;;;8.38;4.90;;;20.10;80.00;;;;;;5073105;28;20378;-60
2021/07/25 00:30:40;;;;;;;7.65;5.22;;;20.10;80.10;;;;;;5074755;28;20378;-61
2021/07/25 00:33:06;;;;;;;9.55;5.05;;;20.00;80.30;;;;;;5074036;28;20381;-60
2021/07/25 00:35:33;;;;;;;11.45;5.32;;;20.00;80.40;;;;;;5073953;28;20382;-60
2021/07/25 00:37:59;;;;;;;8.73;5.32;;;19.90;80.80;;;;;;5072984;28;20603;-60
2021/07/25 00:40:32;;;;;;;7.40;4.72;;;19.90;80.90;;;;;;5073519;28;20378;-61
2021/07/25 00:42:58;;;;;;;9.10;5.30;;;19.90;81.20;;;;;;5072630;28;20386;-61
2021/07/25 00:45:24;;;;;;;7.53;5.20;;;19.90;81.40;;;;;;5074084;28;20371;-61
2021/07/25 00:47:50;;;;;;;8.50;5.10;;;19.90;81.60;;;;;;5074462;28;20379;-61
2021/07/25 00:50:17;;;;;;;7.95;4.97;;;19.80;81.80;;;;;;5073785;28;20424;-61
2021/07/25 00:52:43;;;;;;;8.63;5.07;;;19.90;82.10;;;;;;5072567;28;20382;-61
2021/07/25 00:55:10;;;;;;;9.20;5.20;;;19.80;82.50;;;;;;5073713;28;20729;-61
2021/07/25 00:57:36;;;;;;;8.53;5.20;;;19.70;83.00;;;;;;5072807;28;20778;-61
2021/07/25 01:00:07;;;;;;;9.87;5.00;;;19.60;84.20;;;;;;5073683;28;20386;-61
2021/07/25 01:02:38;;;;;;;8.02;4.82;;;19.60;83.60;;;;;;5074283;28;20386;-62
2021/07/25 01:05:11;;;;;;;8.93;5.30;;;19.60;84.30;;;;;;5073156;28;20363;-62
2021/07/25 01:08:00;;;;;;;10.70;5.38;;;19.50;84.80;;;;;;5072733;28;20385;-62
2021/07/25 01:10:28;;;;;;;9.68;5.60;;;19.60;85.00;;;;;;5072203;28;20390;-62
2021/07/25 01:13:00;;;;;;;7.20;5.30;;;19.50;85.20;;;;;;5071985;28;20386;-61
2021/07/25 01:15:28;;;;;;;10.57;5.38;;;19.50;85.80;;;;;;5073091;28;20386;-62
2021/07/25 01:17:54;;;;;;;8.77;5.10;;;19.40;86.20;;;;;;5072151;28;20429;-61
2021/07/25 01:20:21;;;;;;;8.55;5.15;;;19.40;86.40;;;;;;5073409;28;20846;-61
2021/07/25 01:22:48;;;;;;;10.20;5.20;;;19.40;86.80;;;;;;5073097;28;20382;-61
2021/07/25 01:25:15;;;;;;;8.65;5.28;;;19.30;87.20;;;;;;5072503;28;20847;-62
2021/07/25 01:27:57;;;;;;;9.68;5.30;;;19.30;88.00;;;;;;5072339;28;20382;-61
2021/07/25 01:30:28;;;;;;;11.07;5.43;;;19.20;89.00;;;;;;5072912;28;20382;-62
2021/07/25 01:33:10;;;;;;;8.37;5.33;;;19.20;88.80;;;;;;5072108;28;20361;-61
2021/07/25 01:35:37;;;;;;;8.90;5.30;;;19.10;89.10;;;;;;5072527;28;20803;-62
2021/07/25 01:38:03;;;;;;;9.13;5.23;;;19.10;89.80;;;;;;5071768;28;20409;-61
2021/07/25 01:40:29;;;;;;;9.88;5.75;;;19.10;90.00;;;;;;5071127;28;20747;-61
2021/07/25 01:42:55;;;;;;;9.48;5.85;;;19.00;90.30;;;;;;5070917;28;20413;-61
2021/07/25 01:45:21;;;;;;;7.35;5.28;;;19.00;90.40;;;;;;5072864;28;20381;-62
2021/07/25 01:47:48;;;;;;;8.38;5.57;;;18.90;90.70;;;;;;5073323;28;20386;-62
2021/07/25 01:50:14;;;;;;;9.00;5.63;;;18.90;91.00;;;;;;5073053;28;20381;-62
2021/07/25 01:52:41;;;;;;;10.43;5.55;;;18.90;91.30;;;;;;5072786;28;20382;-61
2021/07/25 01:55:07;;;;;;;10.40;5.60;;;19.00;91.30;;;;;;5071465;28;20381;-62
2021/07/25 01:57:33;;;;;;;9.13;5.75;;;18.90;91.40;;;;;;5072526;28;20406;-61
2021/07/25 01:59:59;;;;;;;8.10;5.77;;;18.80;91.70;;;;;;5072391;28;20374;-62
2021/07/25 02:02:25;;;;;;;8.50;5.57;;;18.80;91.90;;;;;;5072566;28;20378;-62
2021/07/25 02:04:52;;;;;;;9.65;5.93;;;18.80;92.20;;;;;;5071002;28;20370;-62
2021/07/25 02:07:18;;;;;;;10.90;6.00;;;18.70;92.40;;;;;;5072332;28;20415;-62
2021/07/25 02:09:44;;;;;;;8.50;5.77;;;18.70;92.70;;;;;;5072107;28;20871;-62
2021/07/25 02:12:10;;;;;;;10.20;5.72;;;18.70;92.90;;;;;;5072442;28;20378;-61
2021/07/25 02:14:37;;;;;;;8.23;5.57;;;18.60;93.10;;;;;;5071291;28;20448;-62
2021/07/25 02:17:04;;;;;;;7.60;5.40;;;18.60;93.40;;;;;;5071176;28;20405;-62
2021/07/25 02:19:30;;;;;;;11.02;5.53;;;18.60;93.70;;;;;;5071736;28;20836;-62
2021/07/25 02:21:56;;;;;;;9.23;5.93;;;18.60;93.90;;;;;;5071983;28;20386;-62
2021/07/25 02:24:23;;;;;;;9.70;5.80;;;18.60;94.20;;;;;;5072089;28;20719;-62
2021/07/25 02:26:49;;;;;;;9.00;5.73;;;18.60;94.60;;;;;;5071805;28;20383;-62
2021/07/25 02:29:15;;;;;;;10.07;5.90;;;18.60;94.70;;;;;;5072725;28;20664;-62
2021/07/25 02:31:41;;;;;;;7.95;5.50;;;18.50;95.00;;;;;;5072413;28;20374;-62
2021/07/25 02:34:07;;;;;;;10.20;5.60;;;18.60;95.20;;;;;;5070965;28;20366;-62
2021/07/25 02:36:34;;;;;;;7.72;5.75;;;18.60;95.30;;;;;;5072153;28;20396;-62
2021/07/25 02:39:00;;;;;;;8.50;5.88;;;18.50;95.70;;;;;;5072231;28;20382;-62
2021/07/25 02:41:26;;;;;;;9.57;5.97;;;18.50;96.00;;;;;;5072238;28;20412;-62
2021/07/25 02:43:52;;;;;;;10.55;5.65;;;18.50;96.40;;;;;;5072366;28;20731;-63
2021/07/25 02:46:18;;;;;;;11.65;5.93;;;18.40;96.90;;;;;;5071821;28;20379;-62
2021/07/25 02:48:44;;;;;;;7.67;5.60;;;18.50;97.10;;;;;;5071349;28;20401;-62
2021/07/25 02:51:10;;;;;;;10.55;5.90;;;18.50;97.20;;;;;;5071718;28;20374;-61
2021/07/25 02:53:36;;;;;;;9.35;5.80;;;18.40;97.70;;;;;;5072322;28;20385;-64
2021/07/25 02:56:02;;;;;;;9.52;5.93;;;18.40;98.00;;;;;;5071972;28;20378;-62
2021/07/25 02:58:29;;;;;;;9.73;5.70;;;18.40;98.30;;;;;;5071610;28;20417;-62
2021/07/25 03:00:55;;;;;;;10.52;5.68;;;18.40;98.40;;;;;;5071302;28;20390;-61
2021/07/25 03:03:21;;;;;;;10.57;6.10;;;18.40;98.70;;;;;;5071477;28;20401;-62
2021/07/25 03:05:47;;;;;;;9.93;5.90;;;18.30;98.90;;;;;;5071943;28;20378;-62
2021/07/25 03:08:13;;;;;;;11.35;5.97;;;18.30;99.00;;;;;;5071577;28;20731;-62
2021/07/25 03:10:40;;;;;;;11.50;6.05;;;18.40;99.30;;;;;;5071725;28;20381;-62
2021/07/25 03:13:06;;;;;;;9.55;6.15;;;18.40;99.70;;;;;;5071574;28;20835;-61
2021/07/25 03:15:32;;;;;;;11.98;6.00;;;18.40;99.80;;;;;;5071517;28;20382;-62
2021/07/25 03:17:58;;;;;;;9.40;6.05;;;18.50;99.90;;;;;;5071448;28;20402;-62
2021/07/25 03:20:26;;;;;;;8.38;5.70;;;18.50;99.90;;;;;;5072309;28;20370;-62
2021/07/25 03:22:53;;;;;;;11.00;5.60;;;18.40;99.90;;;;;;5071671;28;20385;-62
2021/07/25 03:25:19;;;;;;;9.73;5.93;;;18.40;99.90;;;;;;5071510;28;20382;-62
2021/07/25 03:27:45;;;;;;;9.50;5.85;;;18.50;99.90;;;;;;5072172;28;20386;-62
2021/07/25 03:30:11;;;;;;;9.50;6.00;;;18.50;99.90;;;;;;5071924;28;20847;-61
2021/07/25 03:32:37;;;;;;;9.25;5.80;;;18.40;99.90;;;;;;5071541;28;20382;-62
2021/07/25 03:35:04;;;;;;;9.32;5.80;;;18.30;99.90;;;;;;5072050;28;20379;-61
2021/07/25 03:37:30;;;;;;;9.48;5.93;;;18.40;99.90;;;;;;5069645;28;20833;-61
2021/07/25 03:39:56;;;;;;;11.77;5.70;;;18.40;99.90;;;;;;5072826;28;20378;-62
2021/07/25 03:42:22;;;;;;;11.93;6.30;;;18.40;99.90;;;;;;5075193;28;20454;-61
2021/07/25 03:44:49;;;;;;;9.52;6.03;;;18.40;99.90;;;;;;5075230;28;20385;-62
2021/07/25 03:47:15;;;;;;;9.07;5.90;;;18.40;99.90;;;;;;5074899;28;20484;-62
2021/07/25 03:49:41;;;;;;;9.53;6.00;;;18.40;99.90;;;;;;5074277;28;20727;-62
2021/07/25 03:52:07;;;;;;;9.07;5.87;;;18.50;99.90;;;;;;5073772;28;20366;-62
2021/07/25 03:54:34;;;;;;;8.27;5.60;;;18.50;99.90;;;;;;5073707;28;20382;-62
2021/07/25 03:57:00;;;;;;;8.90;5.82;;;18.50;99.90;;;;;;5075336;28;20370;-63
2021/07/25 03:59:26;;;;;;;9.73;5.68;;;18.50;99.90;;;;;;5075534;28;20387;-62
2021/07/25 04:01:52;;;;;;;8.80;5.47;;;18.40;99.90;;;;;;5074990;28;20375;-62
2021/07/25 04:04:18;;;;;;;8.68;5.50;;;18.50;99.90;;;;;;5074772;28;20382;-62
2021/07/25 04:06:45;;;;;;;10.98;5.60;;;18.50;99.90;;;;;;5074777;28;20401;-62
2021/07/25 04:09:11;;;;;;;9.05;5.60;;;18.50;99.90;;;;;;5075405;28;20389;-62
2021/07/25 04:11:37;;;;;;;7.53;5.00;;;18.50;99.90;;;;;;5075002;28;20723;-62
2021/07/25 04:14:03;;;;;;;6.53;4.60;;;18.50;99.90;;;;;;5074757;28;20705;-62
2021/07/25 04:16:29;;;;;;;8.32;4.88;;;18.50;99.90;;;;;;5074726;28;20831;-62
2021/07/25 04:18:57;;;;;;;8.15;4.80;;;18.50;99.90;;;;;;5074269;28;20413;-62
2021/07/25 04:21:23;;;;;;;6.85;4.63;;;18.50;99.90;;;;;;5074666;28;20401;-62
2021/07/25 04:23:49;;;;;;;7.47;4.25;;;18.50;99.90;;;;;;5073857;28;20381;-62
2021/07/25 04:26:15;;;;;;;7.25;4.68;;;18.60;99.90;;;;;;5074361;28;20870;-62
2021/07/25 04:28:41;;;;;;;6.40;4.22;;;18.60;99.40;;;;;;5074278;28;20382;-62
2021/07/25 04:31:08;;;;;;;6.63;4.00;;;18.60;98.80;;;;;;5074411;28;20377;-61
2021/07/25 04:33:35;;;;;;;6.88;3.40;;;18.60;98.40;;;;;;5074176;28;20839;-62
2021/07/25 04:36:01;;;;;;;5.07;3.35;;;18.70;97.50;;;;;;5074208;28;20373;-62
2021/07/25 04:38:27;;;;;;;5.40;3.63;;;18.60;97.30;;;;;;5074542;28;20889;-63
2021/07/25 04:40:57;;;;;;;5.05;3.10;;;18.60;97.20;;;;;;5073850;28;20368;-62
2021/07/25 04:43:26;;;;;;;5.30;2.90;;;18.70;96.60;;;;;;5073612;28;20388;-62
2021/07/25 04:46:08;;;;;;;4.78;2.78;;;18.70;96.00;;;;;;5073100;28;20386;-62
2021/07/25 04:48:53;;;;;;;4.60;3.10;;;18.70;95.90;;;;;;5074091;28;20385;-62
2021/07/25 04:51:19;;;;;;;3.63;2.40;;;18.80;95.10;;;;;;5072950;28;20389;-62
2021/07/25 04:53:46;;;;;;;6.55;2.80;;;18.90;94.70;;;;;;5073179;28;20842;-62
2021/07/25 04:56:13;;;;;;;5.28;2.78;;;18.90;94.90;;;;;;5072544;28;20390;-62
2021/07/25 04:58:41;;;;;;;5.07;2.60;;;18.90;94.70;;;;;;5072845;28;20410;-62
2021/07/25 05:01:08;;;;;;;4.68;2.72;;;18.90;94.70;;;;;;5072886;28;20371;-62
2021/07/25 05:03:34;;;;;;;4.22;2.40;;;18.90;94.70;;;;;;5072366;28;20377;-62
2021/07/25 05:06:00;;;;;;;4.37;2.80;;;19.00;94.30;;;;;;5072276;28;20385;-62
2021/07/25 05:08:27;;;;;;;5.17;2.80;;;19.10;94.20;;;;;;5072459;28;20382;-62
2021/07/25 05:11:16;;;;;;;5.60;2.92;;;19.10;93.80;;;;;;5071862;28;20731;-62
2021/07/25 05:13:43;;;;;;;4.65;2.40;;;19.10;93.90;;;;;;5072924;28;20385;-62
2021/07/25 05:16:09;;;;;;;4.57;2.70;;;19.30;93.40;;;;;;5072148;28;20373;-62
2021/07/25 05:18:42;;;;;;;4.60;2.80;;;19.20;93.80;;;;;;5072005;28;20758;-62
2021/07/25 05:21:23;;;;;;;4.15;2.67;;;19.30;94.00;;;;;;5072555;28;20743;-62
2021/07/25 05:23:53;;;;;;;5.43;2.60;;;19.30;93.90;;;;;;5072524;28;20373;-63
2021/07/25 05:26:24;;;;;;;4.72;2.53;;;19.40;93.60;;;;;;5071497;28;20886;-62
2021/07/25 05:28:56;;;;;;;3.70;2.40;;;19.30;93.50;;;;;;5072468;28;20403;-62
2021/07/25 05:31:32;;;;;;;6.45;3.00;;;19.40;93.50;;;;;;5072729;28;20367;-62
2021/07/25 05:33:58;;;;;;;3.85;2.10;;;19.40;93.70;;;;;;5072792;28;20386;-63
2021/07/25 05:36:25;;;;;;;4.32;2.28;;;19.40;93.60;;;;;;5073198;28;20390;-62
2021/07/25 05:38:51;;;;;;;3.85;2.22;;;19.50;93.50;;;;;;5073048;28;20767;-62
2021/07/25 05:41:17;;;;;;;3.88;2.17;;;19.60;93.40;;;;;;5072997;28;20389;-62
2021/07/25 05:43:43;;;;;;;4.70;2.17;;;19.60;92.90;;;;;;5073594;28;20389;-62
2021/07/25 05:46:10;;;;;;;3.42;2.10;;;19.70;92.40;;;;;;5072886;28;20381;-63
2021/07/25 05:48:36;;;;;;;3.58;2.38;;;19.70;92.60;;;;;;5073356;28;20378;-62
2021/07/25 05:51:02;;;;;;;4.80;1.90;;;19.80;92.50;;;;;;5072906;28;20378;-62
2021/07/25 05:53:32;;;;;;;2.25;1.83;;;19.80;91.80;;;;;;5072825;28;20743;-62
2021/07/25 05:55:58;;;;;;;3.22;2.05;;;19.90;91.20;;;;;;5073187;28;20378;-62
2021/07/25 05:58:24;;;;;;;4.25;1.67;;;19.90;90.90;;;;;;5071235;28;20413;-62
2021/07/25 06:00:52;;;;;;;2.00;1.50;;;19.90;89.30;;;;;;5071807;28;20366;-62
2021/07/25 06:03:18;;;;;;;1.98;1.60;;;20.00;88.40;;;;;;5070016;28;20386;-61
2021/07/25 06:05:44;;;;;;;3.70;1.60;;;20.10;86.70;;;;;;5072358;28;20940;-61
2021/07/25 06:08:10;;;;;;;3.10;1.60;;;20.20;86.90;;;;;;5072943;28;20378;-61
2021/07/25 06:10:40;;;;;;;3.25;1.60;;;20.30;86.70;;;;;;5070708;28;20379;-61
2021/07/25 06:13:06;;;;;;;2.90;1.50;;;20.30;87.10;;;;;;5073089;28;20373;-61
2021/07/25 06:15:33;;;;;;;3.17;1.70;;;20.30;87.20;;;;;;5072258;28;20850;-61
2021/07/25 06:18:03;;;;;;;2.45;1.42;;;20.30;86.70;;;;;;5070763;28;20890;-62
2021/07/25 06:20:30;;;;;;;3.42;1.33;;;20.40;85.30;;;;;;5072206;28;20373;-62
2021/07/25 06:22:56;;;;;;;2.07;1.40;;;20.40;84.10;;;;;;5072160;28;20390;-63
2021/07/25 06:25:27;;;;;;;3.00;1.53;;;20.50;82.70;;;;;;5070627;28;20763;-62
2021/07/25 06:27:58;;;;;;;2.45;1.40;;;20.50;82.20;;;;;;5072923;28;20374;-62
2021/07/25 06:30:24;;;;;;;1.42;1.27;;;20.60;81.20;;;;;;5071485;28;20447;-63
2021/07/25 06:33:07;;;;;;;3.20;1.50;;;20.60;81.10;;;;;;5054057;28;20386;-61
2021/07/25 06:35:35;;;;;;;1.95;1.25;;;20.70;80.60;;;;;;5071119;28;20759;-61
2021/07/25 06:38:06;;;;;;;2.10;1.42;;;20.80;80.20;;;;;;5070328;28;20398;-61
2021/07/25 06:40:32;;;;;;;1.67;1.35;;;20.70;79.10;;;;;;5072755;28;20412;-61
2021/07/25 06:42:58;;;;;;;1.60;1.20;;;20.70;79.20;;;;;;5071489;28;20394;-61
2021/07/25 06:45:25;;;;;;;2.17;1.30;;;20.80;78.30;;;;;;5070753;28;20768;-61
2021/07/25 06:47:51;;;;;;;1.95;1.33;;;20.90;77.30;;;;;;5071125;28;20382;-61
2021/07/25 06:50:24;;;;;;;2.28;1.40;;;21.10;75.10;;;;;;5071621;28;20370;-61
2021/07/25 06:52:51;;;;;;;2.88;1.35;;;21.20;75.10;;;;;;5072596;28;20831;-61
2021/07/25 06:55:19;;;;;;;1.60;1.27;;;21.30;73.00;;;;;;5070692;28;20377;-62
2021/07/25 06:57:45;;;;;;;2.33;1.20;;;21.40;73.30;;;;;;5072254;28;20373;-62
2021/07/25 07:00:11;;;;;;;4.22;1.38;;;21.50;73.00;;;;;;5070824;28;20390;-61
2021/07/25 07:02:48;;;;;;;2.87;1.30;;;21.60;73.00;;;;;;5072205;28;20374;-62
2021/07/25 07:05:17;;;;;;;3.10;1.33;;;21.70;72.40;;;;;;5072192;28;20382;-62
2021/07/25 07:07:47;;;;;;;1.97;1.20;;;22.00;71.30;;;;;;5072141;28;20389;-61
2021/07/25 07:10:14;;;;;;;2.30;1.10;;;22.10;70.00;;;;;;5071259;28;20389;-62
2021/07/25 07:12:41;;;;;;;1.70;1.30;;;22.30;67.90;;;;;;5071666;28;20927;-61
2021/07/25 07:15:07;;;;;;;1.40;1.10;;;22.30;67.20;;;;;;5075373;28;20384;-61
2021/07/25 07:17:33;;;;;;;2.43;1.20;;;22.40;64.70;;;;;;5074619;28;20370;-63
2021/07/25 07:19:59;;;;;;;1.35;1.00;;;22.50;65.10;;;;;;5075486;28;20393;-63
2021/07/25 07:22:29;;;;;;;1.77;1.08;;;22.50;62.50;;;;;;5075147;28;20879;-61
2021/07/25 07:24:56;;;;;;;3.25;0.90;;;22.50;63.40;;;;;;5074086;28;20411;-62
2021/07/25 07:27:22;;;;;;;1.60;1.10;;;22.60;62.00;;;;;;5075414;28;20404;-62
2021/07/25 07:29:49;;;;;;;1.73;1.00;;;22.60;61.20;;;;;;5074927;28;20434;-62
2021/07/25 07:32:15;;;;;;;1.30;1.00;;;22.70;60.60;;;;;;5075662;28;20382;-62
2021/07/25 07:34:41;;;;;;;1.52;0.80;;;22.70;61.20;;;;;;5075370;28;20386;-61
2021/07/25 07:37:07;;;;;;;1.80;1.20;;;22.70;60.70;;;;;;5075224;28;20390;-61
2021/07/25 07:39:36;;;;;;;1.85;1.20;;;22.80;61.20;;;;;;5075297;28;20410;-61
2021/07/25 07:42:02;;;;;;;1.98;1.08;;;23.20;60.00;;;;;;5075344;28;20457;-62
2021/07/25 07:44:28;;;;;;;2.88;1.05;;;23.30;58.50;;;;;;5073896;28;20400;-61
2021/07/25 07:46:54;;;;;;;1.85;1.13;;;23.50;59.30;;;;;;5073367;28;20746;-62
2021/07/25 07:49:21;;;;;;;1.92;1.15;;;23.70;57.40;;;;;;5074470;28;20398;-62
2021/07/25 07:51:47;;;;;;;2.28;0.95;;;23.80;57.40;;;;;;5074541;28;20415;-62
2021/07/25 07:54:13;;;;;;;1.67;1.00;;;23.90;56.50;;;;;;5075143;28;20388;-62
2021/07/25 07:56:39;;;;;;;1.58;1.10;;;24.10;56.10;;;;;;5074840;28;20383;-62
2021/07/25 07:59:05;;;;;;;1.73;1.05;;;24.20;54.40;;;;;;5074710;28;20405;-62
2021/07/25 08:01:31;;;;;;;1.30;1.00;;;24.20;54.00;;;;;;5074791;28;20367;-61
2021/07/25 08:03:57;;;;;;;1.45;1.20;;;24.20;54.70;;;;;;5074106;28;20382;-61
2021/07/25 08:06:23;;;;;;;1.57;0.90;;;24.20;54.60;;;;;;5073036;28;20906;-62
2021/07/25 08:08:49;;;;;;;2.13;1.00;;;24.40;54.20;;;;;;5074622;28;20393;-62
2021/07/25 08:11:15;;;;;;;1.45;0.95;;;24.40;53.50;;;;;;5074606;28;20382;-62
2021/07/25 08:13:44;;;;;;;1.85;1.00;;;24.50;53.40;;;;;;5074436;28;20427;-61
2021/07/25 08:16:11;;;;;;;1.30;1.00;;;24.40;52.80;;;;;;5074710;28;20743;-62
2021/07/25 08:18:37;;;;;;;1.70;1.10;;;24.20;53.70;;;;;;5073478;28;20417;-61
2021/07/25 08:21:03;;;;;;;2.20;0.95;;;24.20;53.90;;;;;;5074387;28;20378;-61
2021/07/25 08:23:29;;;;;;;2.75;1.20;;;24.30;54.00;;;;;;5074405;28;20378;-63
2021/07/25 08:25:55;;;;;;;1.30;0.90;;;24.60;53.70;;;;;;5073613;28;20385;-62
2021/07/25 08:28:22;;;;;;;2.08;0.85;;;24.90;52.90;;;;;;5074266;28;20386;-61
2021/07/25 08:30:48;;;;;;;1.48;0.90;;;25.20;52.20;;;;;;5074973;28;20843;-62
2021/07/25 08:33:14;;;;;;;1.52;1.00;;;25.20;50.30;;;;;;5074196;28;20393;-62
2021/07/25 08:35:40;;;;;;;1.50;0.90;;;25.50;49.50;;;;;;5074285;28;20862;-62
2021/07/25 08:38:06;;;;;;;1.40;0.90;;;25.70;48.70;;;;;;5072872;28;20778;-62
2021/07/25 08:40:32;;;;;;;1.95;0.80;;;25.90;50.30;;;;;;5074324;28;20401;-62
2021/07/25 08:43:07;;;;;;;1.77;1.00;;;26.60;48.50;;;;;;5072982;28;20382;-62
2021/07/25 08:45:34;;;;;;;2.57;0.93;;;26.90;47.40;;;;;;5074502;28;20370;-62
2021/07/25 08:48:18;;;;;;;1.25;0.90;;;27.00;46.90;;;;;;5073733;28;20385;-62
2021/07/25 08:51:05;;;;;;;2.42;1.00;;;27.50;46.10;;;;;;5073517;28;20370;-62
2021/07/25 08:53:35;;;;;;;2.17;1.00;;;28.10;44.10;;;;;;5073885;28;20874;-63
2021/07/25 08:56:04;;;;;;;2.30;0.93;;;28.70;43.90;;;;;;5074345;28;20370;-63
2021/07/25 08:58:30;;;;;;;3.75;1.08;;;28.70;42.20;;;;;;5074658;28;20413;-62
2021/07/25 09:00:56;;;;;;;1.02;0.85;;;28.90;41.80;;;;;;5072413;28;20371;-62
2021/07/25 09:03:27;;;;;;;1.97;1.00;;;29.40;41.70;;;;;;5072410;28;20363;-63
2021/07/25 09:05:53;;;;;;;1.88;0.88;;;29.20;41.70;;;;;;5074106;28;20374;-63
2021/07/25 09:08:22;;;;;;;1.23;0.88;;;29.30;41.90;;;;;;5072719;28;20382;-63
2021/07/25 09:10:51;;;;;;;1.33;0.95;;;29.50;40.90;;;;;;5073428;28;20366;-63
2021/07/25 09:13:17;;;;;;;1.02;0.80;;;30.00;40.50;;;;;;5072984;28;20742;-63
2021/07/25 09:15:44;;;;;;;1.33;0.82;;;30.10;39.30;;;;;;5073171;28;20381;-63
2021/07/25 09:18:10;;;;;;;1.83;1.00;;;30.40;38.70;;;;;;5073513;28;20866;-63
2021/07/25 09:20:37;;;;;;;0.90;0.85;;;30.90;39.10;;;;;;5073334;28;20393;-63
2021/07/25 09:23:12;;;;;;;1.55;1.00;;;31.00;35.90;;;;;;5071923;28;20378;-63
2021/07/25 09:25:43;;;;;;;1.20;0.90;;;30.70;35.60;;;;;;5073547;28;20743;-63
2021/07/25 09:28:18;;;;;;;1.73;1.00;;;30.70;35.80;;;;;;5074006;28;20378;-63
2021/07/25 09:30:44;;;;;;;1.83;1.07;;;30.90;35.40;;;;;;5072219;28;20377;-63
2021/07/25 09:33:22;;;;;;;1.50;0.85;;;31.20;35.00;;;;;;5072966;28;20397;-63
2021/07/25 09:35:48;;;;;;;2.17;1.03;;;31.70;35.30;;;;;;5073209;28;20389;-63
2021/07/25 09:38:14;;;;;;;1.30;1.00;;;32.00;34.20;;;;;;5071671;28;20382;-63
2021/07/25 09:40:42;;;;;;;0.98;0.80;;;31.90;33.70;;;;;;5055018;28;20401;-63
2021/07/25 09:43:23;;;;;;;1.20;0.90;;;31.60;34.20;;;;;;5072432;28;20901;-64
2021/07/25 09:45:57;;;;;;;2.15;1.10;;;31.50;34.10;;;;;;5072404;28;20390;-63
2021/07/25 09:48:33;;;;;;;2.10;1.00;;;31.40;33.30;;;;;;5073202;28;20366;-63
2021/07/25 09:51:19;;;;;;;1.63;1.00;;;31.40;34.40;;;;;;5072579;28;20473;-63
2021/07/25 09:53:53;;;;;;;2.58;1.10;;;31.40;32.80;;;;;;5071632;28;20382;-62
2021/07/25 09:56:25;;;;;;;2.40;1.20;;;31.20;33.60;;;;;;5073117;28;20370;-63
2021/07/25 09:58:52;;;;;;;1.48;1.00;;;31.00;33.00;;;;;;5073012;28;20401;-63
2021/07/25 10:01:40;;;;;;;2.28;1.10;;;30.40;34.80;;;;;;5072819;28;20382;-62
2021/07/25 10:04:13;;;;;;;1.42;1.10;;;30.40;34.20;;;;;;5072657;28;20386;-63
2021/07/25 10:06:41;;;;;;;1.75;1.10;;;30.50;34.90;;;;;;5072150;28;20389;-63
2021/07/25 10:09:11;;;;;;;1.83;1.10;;;29.60;34.20;;;;;;5072372;28;20394;-62
2021/07/25 10:11:40;;;;;;;1.80;1.13;;;28.70;36.40;;;;;;5072748;28;20374;-62
2021/07/25 10:14:06;;;;;;;1.30;1.10;;;28.70;37.70;;;;;;5072499;28;20378;-62
2021/07/25 10:16:32;;;;;;;2.47;1.20;;;29.40;37.10;;;;;;5072269;28;20385;-62
2021/07/25 10:18:58;;;;;;;2.63;1.30;;;29.60;35.00;;;;;;5072738;28;20398;-62
2021/07/25 10:21:25;;;;;;;1.30;1.10;;;29.30;34.30;;;;;;5071282;28;20827;-63
2021/07/25 10:23:55;;;;;;;2.20;1.20;;;29.40;35.00;;;;;;5070925;28;20385;-62
2021/07/25 10:26:28;;;;;;;1.50;1.10;;;29.50;35.20;;;;;;5071116;28;20374;-62
2021/07/25 10:28:58;;;;;;;1.27;1.05;;;30.00;34.80;;;;;;5072263;28;20366;-63
2021/07/25 10:31:25;;;;;;;2.00;1.40;;;30.40;34.00;;;;;;5071707;28;20358;-63
2021/07/25 10:33:52;;;;;;;1.90;1.40;;;30.20;34.00;;;;;;5070825;28;20405;-62
2021/07/25 10:36:19;;;;;;;3.83;1.88;;;29.40;34.60;;;;;;5070992;28;20412;-62
2021/07/25 10:38:48;;;;;;;2.55;1.33;;;29.60;34.60;;;;;;5072645;28;20726;-62
2021/07/25 10:41:21;;;;;;;1.52;1.27;;;29.80;34.60;;;;;;5072395;28;20743;-63
2021/07/25 10:43:48;;;;;;;2.25;1.50;;;29.60;35.50;;;;;;5071322;28;20367;-62
2021/07/25 10:46:14;;;;;;;4.55;1.38;;;30.20;34.20;;;;;;5070684;28;20374;-63
2021/07/25 10:49:03;;;;;;;2.08;1.30;;;30.70;34.50;;;;;;5070280;28;20390;-63
2021/07/25 10:51:30;;;;;;;1.83;1.30;;;30.80;32.90;;;;;;5072147;28;20382;-61
2021/07/25 10:54:24;;;;;;;2.88;1.42;;;31.50;32.90;;;;;;5071394;28;20381;-61
2021/07/25 10:57:08;;;;;;;3.45;1.38;;;31.70;32.20;;;;;;5071740;28;20862;-63
2021/07/25 10:59:47;;;;;;;3.47;1.30;;;31.20;31.90;;;;;;5071552;28;20414;-61
2021/07/25 11:02:14;;;;;;;2.15;1.40;;;31.50;32.60;;;;;;5071853;28;20373;-62
2021/07/25 11:04:56;;;;;;;2.63;1.30;;;31.80;32.70;;;;;;5071807;28;20370;-61
2021/07/25 11:07:22;;;;;;;2.10;1.30;;;32.10;32.70;;;;;;5072102;28;20397;-62
2021/07/25 11:10:02;;;;;;;1.90;1.50;;;32.50;31.70;;;;;;5072208;28;20389;-61
2021/07/25 11:12:50;;;;;;;2.05;1.40;;;32.30;30.60;;;;;;5070963;28;20374;-62
2021/07/25 11:15:31;;;;;;;1.38;1.20;;;32.50;31.00;;;;;;5072154;28;20386;-62
2021/07/25 11:17:58;;;;;;;2.97;1.23;;;32.50;30.90;;;;;;5071529;28;20378;-62
2021/07/25 11:20:51;;;;;;;2.25;1.38;;;32.30;31.30;;;;;;5071525;28;20454;-62
2021/07/25 11:23:20;;;;;;;1.85;1.50;;;32.30;31.40;;;;;;5068593;28;20901;-62
2021/07/25 11:25:50;;;;;;;1.38;1.27;;;31.90;32.40;;;;;;5072475;28;20382;-62
2021/07/25 11:28:39;;;;;;;2.30;1.40;;;31.90;33.20;;;;;;5070509;28;20393;-61
2021/07/25 11:31:14;;;;;;;3.40;1.50;;;31.70;33.50;;;;;;5071480;28;20370;-62
2021/07/25 11:33:43;;;;;;;1.67;1.40;;;31.70;33.50;;;;;;5071196;28;20382;-62
2021/07/25 11:36:13;;;;;;;3.40;1.73;;;31.70;33.30;;;;;;5071529;28;20385;-62
2021/07/25 11:38:41;;;;;;;2.88;1.70;;;31.40;32.90;;;;;;5072062;28;20370;-62
2021/07/25 11:41:08;;;;;;;2.15;1.60;;;31.30;33.20;;;;;;5071182;28;20407;-61
2021/07/25 11:43:53;;;;;;;3.08;1.60;;;31.10;33.70;;;;;;5053436;28;20386;-62
2021/07/25 11:46:25;;;;;;;2.58;1.83;;;31.70;33.60;;;;;;5071383;28;20385;-62
2021/07/25 11:49:14;;;;;;;3.67;1.80;;;31.70;33.20;;;;;;5071824;28;20739;-62
2021/07/25 11:52:02;;;;;;;2.03;1.83;;;31.30;33.60;;;;;;5071059;28;20374;-62
2021/07/25 11:54:34;;;;;;;3.03;1.80;;;30.90;34.60;;;;;;5067665;28;20374;-62
2021/07/25 11:57:02;;;;;;;2.40;1.90;;;31.40;34.10;;;;;;5072239;28;20449;-62
2021/07/25 11:59:30;;;;;;;2.80;2.15;;;31.20;33.90;;;;;;5071420;28;20464;-62
2021/07/25 12:01:56;;;;;;;2.47;1.75;;;30.80;34.20;;;;;;5074490;28;20409;-62
2021/07/25 12:04:26;;;;;;;2.15;1.67;;;30.60;34.90;;;;;;5075345;28;20381;-62
2021/07/25 12:07:03;;;;;;;4.03;2.00;;;30.60;35.60;;;;;;5073923;28;20405;-61
2021/07/25 12:09:29;;;;;;;3.75;2.50;;;30.50;35.20;;;;;;5075146;28;20365;-62
2021/07/25 12:12:22;;;;;;;6.30;2.50;;;30.20;34.60;;;;;;5074839;28;20399;-62
2021/07/25 12:14:49;;;;;;;4.18;2.80;;;30.10;34.90;;;;;;5072472;28;20390;-61
2021/07/25 12:17:44;;;;;;;4.45;2.70;;;29.80;35.60;;;;;;5073735;28;20743;-61
2021/07/25 12:20:17;;;;;;;3.30;2.30;;;30.00;36.50;;;;;;5074425;28;20405;-61
2021/07/25 12:23:02;;;;;;;4.40;2.88;;;30.20;35.30;;;;;;5074308;28;20377;-61
2021/07/25 12:25:29;;;;;;;3.57;3.00;;;30.00;36.00;;;;;;5075377;28;20370;-62
2021/07/25 12:28:13;;;;;;;5.15;3.00;;;30.20;35.70;;;;;;5073483;28;20370;-61
2021/07/25 12:30:43;;;;;;;5.13;3.28;;;30.20;36.00;;;;;;5073027;28;20386;-61
2021/07/25 12:33:13;;;;;;;6.95;3.42;;;30.40;35.50;;;;;;5072383;28;20390;-62
2021/07/25 12:35:40;;;;;;;5.32;3.40;;;30.50;34.90;;;;;;5074449;28;20708;-61
2021/07/25 12:38:13;;;;;;;4.28;3.30;;;30.00;35.20;;;;;;5074111;28;20863;-61
2021/07/25 12:41:01;;;;;;;4.60;3.08;;;29.80;35.40;;;;;;5073609;28;20409;-61
2021/07/25 12:43:27;;;;;;;5.25;3.47;;;29.90;35.80;;;;;;5074859;28;20381;-61
2021/07/25 12:45:54;;;;;;;7.68;3.50;;;29.70;35.80;;;;;;5072769;28;20882;-62
2021/07/25 12:48:20;;;;;;;7.05;3.42;;;29.90;36.20;;;;;;5074138;28;20430;-62
2021/07/25 12:53:56;;;;;;;7.22;3.28;;;30.10;35.30;;;;;;5075203;28;20166;-62
2021/07/25 12:56:24;;;;;;;6.53;3.80;;;30.00;34.80;;;;;;5075628;28;20165;-62
2021/07/25 12:58:56;;;;;;;8.45;3.90;;;30.30;35.20;;;;;;5075014;28;20165;-62